EDDMLIRQ

Guest
Details From EDDM - Muenchen Franz-josef Strauss
To LIRQ - Firenze
Flight Number -
Tags Generated
Created
Modified
Stats Distance 273 nm / 506 km
Max Altitude 0 ft / 0 m
Waypoints 3
Social Downloads 3
Likes 0
Share VATSIM

Download

Looking for another format? Having issues loading an existing format? Contact us
Advertisement - Login to hide

Notes

Generated

Route

EDDM LASEB LIRQ

ID Type Via Altitude Latitude Longitude Leg Dist Tot Dist Heading (true) Name
O EDDM APT - 0 ft / 0 m 48.34069˚ 11.75108˚ - 0 nm - -
LASEB FIX - 0 ft / 0 m 43.99028˚ 11.22333˚ 262 nm 262 nm 185° / 185° -
O LIRQ APT - 0 ft / 0 m 43.80507˚ 11.19741˚ 11 nm 273 nm 186° / 186° -

Altitude Profile

Advertisement - Login to hide

Weather


0- 5 10 15 20 25 30 35+ Temperature / ° C

Clouds and Precipitation
Forecast for 2018-05-24 12:00 UTC. Updated an hour ago

Ground ~20,000 ft ~40,000 ft Winds

EDDM

Details ICAO EDDM (MUC)
Name Muenchen Franz-Josef Strauss
Region Germany - Civil
Timezone Europe/Berlin (UTC+2.0)
Stats Elevation 1,487 ft / 453 m (AMSL)
Location 48.353786° 11.786117°
Runways 2
Magnetic Variation 3.215° E

METAR

EDDM 241220Z VRB01KT 9999 SCT018 BKN090 19/15 Q1018 NOSIG

Decode

TAF

TAF EDDM 241100Z 2412/2518 23005KT 9999 SCT025 TEMPO 2412/2418 12005KT PROB30 TEMPO 2412/2420 TSRA BKN025CB BECMG 2418/2420 VRB02KT BECMG 2422/2502 4000 BCFG PROB30 TEMPO 2502/2505 0700 FG BECMG 2506/2508 35005KT PROB30 TEMPO 2512/2518 TSRA SCT040CB

Decode

Departure Runways

ID Width Length Bearing (true) Bearing (mag) Surface Threshold Offset Overrun Length
08L 197 ft / 60 m 13,086 ft / 3,989 m 83.38° 80.17° Concrete 0 ft / 0 m 0 ft / 0 m
08R 197 ft / 60 m 13,086 ft / 3,989 m 83.37° 80.16° Concrete 0 ft / 0 m 0 ft / 0 m
26L 197 ft / 60 m 13,086 ft / 3,989 m 263.41° 260.20° Concrete 0 ft / 0 m 0 ft / 0 m
26R 197 ft / 60 m 13,086 ft / 3,989 m 263.42° 260.21° Concrete 0 ft / 0 m 0 ft / 0 m

LIRQ

Details ICAO LIRQ (FLR)
Name Firenze
Region Italy
Timezone Europe/Rome (UTC+2.0)
Stats Elevation 142 ft / 43 m (AMSL)
Location 43.809984° 11.205118°
Runways 1
Magnetic Variation 2.923° E

METAR

LIRQ 241220Z VRB05KT 9999 FEW030 24/17 Q1017

Decode

TAF

TAF LIRQ 241100Z 2412/2512 27008KT 9999 SCT025 SCT050 TEMPO 2412/2415 RA BECMG 2416/2418 VRB04KT TEMPO 2502/2505 1200 BCFG BKN008

Decode

Destination Runways

ID Width Length Bearing (true) Bearing (mag) Surface Threshold Offset Overrun Length
05 98 ft / 30 m 5,420 ft / 1,652 m 48.52° 45.60° Asphalt 492 ft / 150 m 0 ft / 0 m
23 98 ft / 30 m 5,420 ft / 1,652 m 228.53° 225.61° Asphalt 2,287 ft / 697 m 0 ft / 0 m

Approach Navaids

Runway Type Ident Frequency Range Bearing (true) Bearing (mag) Slope Elevation
05 Localiser IFZ 110.30 MHz 18 nm / 33 km 48.10° 45.18° - 131 ft / 40 m (AMSL)
05 Glidescope IFZ 110.30 MHz 10 nm / 19 km 47.00° 44.08° 3.00° 144 ft / 44 m (AMSL)
05 DME IFZ 110.30 MHz 18 nm / 33 km - - - 144 ft / 44 m (AMSL)

Popular Alternatives